sensor_id;sensor_type;location;lat;lon;timestamp;P1;durP1;ratioP1;P2;durP2;ratioP2
25481;SDS011;13395;50.752;4.268;2023-07-22T00:00:25;19.48;;;10.07;;
25481;SDS011;13395;50.752;4.268;2023-07-22T00:02:51;15.38;;;9.93;;
25481;SDS011;13395;50.752;4.268;2023-07-22T00:05:17;18.13;;;9.70;;
25481;SDS011;13395;50.752;4.268;2023-07-22T00:07:48;19.23;;;10.63;;
25481;SDS011;13395;50.752;4.268;2023-07-22T00:10:15;23.52;;;10.50;;
25481;SDS011;13395;50.752;4.268;2023-07-22T00:12:41;14.82;;;11.00;;
25481;SDS011;13395;50.752;4.268;2023-07-22T00:15:07;14.27;;;9.73;;
25481;SDS011;13395;50.752;4.268;2023-07-22T00:17:33;23.90;;;10.32;;
25481;SDS011;13395;50.752;4.268;2023-07-22T00:19:58;13.55;;;9.77;;
25481;SDS011;13395;50.752;4.268;2023-07-22T00:22:25;15.55;;;10.30;;
25481;SDS011;13395;50.752;4.268;2023-07-22T00:24:51;17.10;;;10.35;;
25481;SDS011;13395;50.752;4.268;2023-07-22T00:27:17;14.43;;;10.30;;
25481;SDS011;13395;50.752;4.268;2023-07-22T00:29:43;12.95;;;10.20;;
25481;SDS011;13395;50.752;4.268;2023-07-22T00:32:08;15.45;;;10.43;;
25481;SDS011;13395;50.752;4.268;2023-07-22T00:34:34;18.75;;;10.90;;
25481;SDS011;13395;50.752;4.268;2023-07-22T00:37:01;21.33;;;10.15;;
25481;SDS011;13395;50.752;4.268;2023-07-22T00:39:27;13.60;;;9.85;;
25481;SDS011;13395;50.752;4.268;2023-07-22T00:41:53;17.35;;;10.45;;
25481;SDS011;13395;50.752;4.268;2023-07-22T00:44:18;17.52;;;11.18;;
25481;SDS011;13395;50.752;4.268;2023-07-22T00:46:44;17.65;;;11.13;;
25481;SDS011;13395;50.752;4.268;2023-07-22T00:49:10;18.13;;;9.95;;
25481;SDS011;13395;50.752;4.268;2023-07-22T00:51:37;16.42;;;10.02;;
25481;SDS011;13395;50.752;4.268;2023-07-22T00:54:03;17.58;;;10.38;;
25481;SDS011;13395;50.752;4.268;2023-07-22T00:56:30;18.90;;;10.98;;
25481;SDS011;13395;50.752;4.268;2023-07-22T00:58:58;16.30;;;10.02;;
25481;SDS011;13395;50.752;4.268;2023-07-22T01:01:24;25.50;;;11.48;;
25481;SDS011;13395;50.752;4.268;2023-07-22T01:03:49;14.65;;;10.18;;
25481;SDS011;13395;50.752;4.268;2023-07-22T01:06:15;16.52;;;10.38;;
25481;SDS011;13395;50.752;4.268;2023-07-22T01:08:43;18.77;;;11.15;;
25481;SDS011;13395;50.752;4.268;2023-07-22T01:11:08;18.05;;;10.10;;
25481;SDS011;13395;50.752;4.268;2023-07-22T01:13:34;17.38;;;10.55;;
25481;SDS011;13395;50.752;4.268;2023-07-22T01:15:59;17.67;;;10.45;;
25481;SDS011;13395;50.752;4.268;2023-07-22T01:18:25;15.90;;;10.25;;
25481;SDS011;13395;50.752;4.268;2023-07-22T01:20:51;15.32;;;10.25;;
25481;SDS011;13395;50.752;4.268;2023-07-22T01:23:17;18.40;;;10.48;;
25481;SDS011;13395;50.752;4.268;2023-07-22T01:25:43;15.88;;;10.27;;
25481;SDS011;13395;50.752;4.268;2023-07-22T01:28:09;15.98;;;10.77;;
25481;SDS011;13395;50.752;4.268;2023-07-22T01:30:38;19.50;;;10.70;;
25481;SDS011;13395;50.752;4.268;2023-07-22T01:33:04;20.98;;;10.93;;
25481;SDS011;13395;50.752;4.268;2023-07-22T01:35:30;15.52;;;10.85;;
25481;SDS011;13395;50.752;4.268;2023-07-22T01:37:56;17.20;;;10.40;;
25481;SDS011;13395;50.752;4.268;2023-07-22T01:40:21;19.13;;;11.25;;
25481;SDS011;13395;50.752;4.268;2023-07-22T01:42:48;14.38;;;10.02;;
25481;SDS011;13395;50.752;4.268;2023-07-22T01:45:14;14.68;;;10.27;;
25481;SDS011;13395;50.752;4.268;2023-07-22T01:47:40;16.90;;;11.38;;
25481;SDS011;13395;50.752;4.268;2023-07-22T01:50:05;19.20;;;10.43;;
25481;SDS011;13395;50.752;4.268;2023-07-22T01:52:31;19.05;;;11.30;;
25481;SDS011;13395;50.752;4.268;2023-07-22T01:54:57;18.25;;;10.82;;
25481;SDS011;13395;50.752;4.268;2023-07-22T01:57:23;26.17;;;12.90;;
25481;SDS011;13395;50.752;4.268;2023-07-22T01:59:48;21.25;;;11.35;;
25481;SDS011;13395;50.752;4.268;2023-07-22T02:02:14;21.45;;;11.82;;
25481;SDS011;13395;50.752;4.268;2023-07-22T02:04:40;22.83;;;11.10;;
25481;SDS011;13395;50.752;4.268;2023-07-22T02:07:05;18.17;;;11.68;;
25481;SDS011;13395;50.752;4.268;2023-07-22T02:09:34;22.02;;;12.35;;
25481;SDS011;13395;50.752;4.268;2023-07-22T02:12:00;19.70;;;11.60;;
25481;SDS011;13395;50.752;4.268;2023-07-22T02:14:25;28.88;;;11.60;;
25481;SDS011;13395;50.752;4.268;2023-07-22T02:16:51;22.00;;;12.35;;
25481;SDS011;13395;50.752;4.268;2023-07-22T02:19:16;19.15;;;12.52;;
25481;SDS011;13395;50.752;4.268;2023-07-22T02:21:42;22.98;;;12.68;;
25481;SDS011;13395;50.752;4.268;2023-07-22T02:24:08;19.30;;;12.88;;
25481;SDS011;13395;50.752;4.268;2023-07-22T02:26:34;28.63;;;13.80;;
25481;SDS011;13395;50.752;4.268;2023-07-22T02:29:00;24.42;;;12.07;;
25481;SDS011;13395;50.752;4.268;2023-07-22T02:31:25;24.13;;;13.68;;
25481;SDS011;13395;50.752;4.268;2023-07-22T02:33:51;24.02;;;13.43;;
25481;SDS011;13395;50.752;4.268;2023-07-22T02:36:16;28.58;;;13.52;;
25481;SDS011;13395;50.752;4.268;2023-07-22T02:38:42;33.65;;;13.13;;
25481;SDS011;13395;50.752;4.268;2023-07-22T02:41:08;26.65;;;13.00;;
25481;SDS011;13395;50.752;4.268;2023-07-22T02:43:33;25.35;;;13.98;;
25481;SDS011;13395;50.752;4.268;2023-07-22T02:46:04;25.75;;;15.48;;
25481;SDS011;13395;50.752;4.268;2023-07-22T02:48:32;30.00;;;14.02;;
25481;SDS011;13395;50.752;4.268;2023-07-22T02:51:02;22.38;;;13.85;;
25481;SDS011;13395;50.752;4.268;2023-07-22T02:53:32;24.67;;;12.98;;
25481;SDS011;13395;50.752;4.268;2023-07-22T02:55:58;24.95;;;13.25;;
25481;SDS011;13395;50.752;4.268;2023-07-22T02:58:24;28.10;;;14.73;;
25481;SDS011;13395;50.752;4.268;2023-07-22T03:00:50;31.70;;;14.10;;
25481;SDS011;13395;50.752;4.268;2023-07-22T03:03:15;26.65;;;13.27;;
25481;SDS011;13395;50.752;4.268;2023-07-22T03:05:41;22.27;;;13.50;;
25481;SDS011;13395;50.752;4.268;2023-07-22T03:08:07;21.50;;;13.52;;
25481;SDS011;13395;50.752;4.268;2023-07-22T03:10:32;25.10;;;13.85;;
25481;SDS011;13395;50.752;4.268;2023-07-22T03:12:58;22.85;;;12.43;;
25481;SDS011;13395;50.752;4.268;2023-07-22T03:15:24;21.70;;;12.85;;
25481;SDS011;13395;50.752;4.268;2023-07-22T03:17:53;21.67;;;12.45;;
25481;SDS011;13395;50.752;4.268;2023-07-22T03:20:24;20.70;;;12.25;;
25481;SDS011;13395;50.752;4.268;2023-07-22T03:22:50;25.33;;;13.18;;
25481;SDS011;13395;50.752;4.268;2023-07-22T03:25:16;28.13;;;12.82;;
25481;SDS011;13395;50.752;4.268;2023-07-22T03:27:42;26.75;;;13.65;;
25481;SDS011;13395;50.752;4.268;2023-07-22T03:30:10;24.00;;;12.45;;
25481;SDS011;13395;50.752;4.268;2023-07-22T03:32:44;20.70;;;12.07;;
25481;SDS011;13395;50.752;4.268;2023-07-22T03:35:12;25.33;;;13.07;;
25481;SDS011;13395;50.752;4.268;2023-07-22T03:37:38;21.38;;;13.05;;
25481;SDS011;13395;50.752;4.268;2023-07-22T03:40:05;23.08;;;13.30;;
25481;SDS011;13395;50.752;4.268;2023-07-22T03:42:34;24.70;;;12.32;;
25481;SDS011;13395;50.752;4.268;2023-07-22T03:45:00;22.98;;;12.82;;
25481;SDS011;13395;50.752;4.268;2023-07-22T03:47:26;21.08;;;12.65;;
25481;SDS011;13395;50.752;4.268;2023-07-22T03:49:51;27.35;;;12.75;;
25481;SDS011;13395;50.752;4.268;2023-07-22T03:52:17;22.10;;;11.80;;
25481;SDS011;13395;50.752;4.268;2023-07-22T03:54:43;26.88;;;12.85;;
25481;SDS011;13395;50.752;4.268;2023-07-22T03:57:09;21.88;;;12.65;;
25481;SDS011;13395;50.752;4.268;2023-07-22T03:59:35;23.77;;;13.23;;
25481;SDS011;13395;50.752;4.268;2023-07-22T04:02:01;21.63;;;12.40;;
25481;SDS011;13395;50.752;4.268;2023-07-22T04:04:27;28.55;;;13.70;;
25481;SDS011;13395;50.752;4.268;2023-07-22T04:06:52;28.20;;;12.25;;
25481;SDS011;13395;50.752;4.268;2023-07-22T04:09:18;27.40;;;12.85;;
25481;SDS011;13395;50.752;4.268;2023-07-22T04:11:43;25.88;;;12.10;;
25481;SDS011;13395;50.752;4.268;2023-07-22T04:14:09;32.70;;;13.68;;
25481;SDS011;13395;50.752;4.268;2023-07-22T04:16:37;21.25;;;13.73;;
25481;SDS011;13395;50.752;4.268;2023-07-22T04:19:03;27.95;;;13.25;;
25481;SDS011;13395;50.752;4.268;2023-07-22T04:21:28;21.05;;;12.25;;
25481;SDS011;13395;50.752;4.268;2023-07-22T04:23:54;39.42;;;12.23;;
25481;SDS011;13395;50.752;4.268;2023-07-22T04:26:19;21.88;;;12.18;;
25481;SDS011;13395;50.752;4.268;2023-07-22T04:28:45;27.33;;;12.45;;
25481;SDS011;13395;50.752;4.268;2023-07-22T04:31:10;23.77;;;12.23;;
25481;SDS011;13395;50.752;4.268;2023-07-22T04:33:36;27.60;;;12.93;;
25481;SDS011;13395;50.752;4.268;2023-07-22T04:36:01;22.50;;;12.23;;
25481;SDS011;13395;50.752;4.268;2023-07-22T04:38:27;23.60;;;11.90;;
25481;SDS011;13395;50.752;4.268;2023-07-22T04:40:53;28.27;;;12.32;;
25481;SDS011;13395;50.752;4.268;2023-07-22T04:43:20;24.85;;;12.57;;
25481;SDS011;13395;50.752;4.268;2023-07-22T04:45:46;21.65;;;12.02;;
25481;SDS011;13395;50.752;4.268;2023-07-22T04:48:15;24.85;;;12.73;;
25481;SDS011;13395;50.752;4.268;2023-07-22T04:50:41;28.92;;;12.18;;
25481;SDS011;13395;50.752;4.268;2023-07-22T04:53:09;18.10;;;11.55;;
25481;SDS011;13395;50.752;4.268;2023-07-22T04:55:38;25.90;;;12.07;;
25481;SDS011;13395;50.752;4.268;2023-07-22T04:58:04;22.20;;;11.30;;
25481;SDS011;13395;50.752;4.268;2023-07-22T05:00:30;19.23;;;11.15;;
25481;SDS011;13395;50.752;4.268;2023-07-22T05:02:56;25.80;;;11.50;;
25481;SDS011;13395;50.752;4.268;2023-07-22T05:05:21;22.40;;;12.13;;
25481;SDS011;13395;50.752;4.268;2023-07-22T05:07:47;26.85;;;11.13;;
25481;SDS011;13395;50.752;4.268;2023-07-22T05:10:14;24.27;;;11.55;;
25481;SDS011;13395;50.752;4.268;2023-07-22T05:12:40;20.17;;;11.13;;
25481;SDS011;13395;50.752;4.268;2023-07-22T05:15:07;23.20;;;11.05;;
25481;SDS011;13395;50.752;4.268;2023-07-22T05:17:34;19.63;;;10.50;;
25481;SDS011;13395;50.752;4.268;2023-07-22T05:19:59;20.10;;;9.80;;
25481;SDS011;13395;50.752;4.268;2023-07-22T05:22:25;17.88;;;9.27;;
25481;SDS011;13395;50.752;4.268;2023-07-22T05:24:51;16.67;;;8.98;;
25481;SDS011;13395;50.752;4.268;2023-07-22T05:27:17;13.70;;;8.80;;
25481;SDS011;13395;50.752;4.268;2023-07-22T05:29:42;19.58;;;9.23;;
25481;SDS011;13395;50.752;4.268;2023-07-22T05:32:08;17.40;;;8.68;;
25481;SDS011;13395;50.752;4.268;2023-07-22T05:34:34;15.43;;;8.55;;
25481;SDS011;13395;50.752;4.268;2023-07-22T05:36:59;16.33;;;7.75;;
25481;SDS011;13395;50.752;4.268;2023-07-22T05:39:25;15.95;;;8.13;;
25481;SDS011;13395;50.752;4.268;2023-07-22T05:41:51;18.58;;;8.43;;
25481;SDS011;13395;50.752;4.268;2023-07-22T05:44:16;13.00;;;7.53;;
25481;SDS011;13395;50.752;4.268;2023-07-22T05:46:42;16.83;;;8.25;;
25481;SDS011;13395;50.752;4.268;2023-07-22T05:49:08;13.18;;;8.00;;
25481;SDS011;13395;50.752;4.268;2023-07-22T05:51:35;15.77;;;8.93;;
25481;SDS011;13395;50.752;4.268;2023-07-22T05:54:01;18.23;;;8.18;;
25481;SDS011;13395;50.752;4.268;2023-07-22T05:56:27;20.95;;;8.57;;
25481;SDS011;13395;50.752;4.268;2023-07-22T05:58:52;16.45;;;9.45;;
25481;SDS011;13395;50.752;4.268;2023-07-22T06:01:18;13.95;;;8.10;;
25481;SDS011;13395;50.752;4.268;2023-07-22T06:03:43;20.38;;;8.77;;
25481;SDS011;13395;50.752;4.268;2023-07-22T06:06:09;25.58;;;8.57;;
25481;SDS011;13395;50.752;4.268;2023-07-22T06:08:35;21.63;;;8.45;;
25481;SDS011;13395;50.752;4.268;2023-07-22T06:11:01;16.23;;;7.55;;
25481;SDS011;13395;50.752;4.268;2023-07-22T06:13:26;19.42;;;8.77;;
25481;SDS011;13395;50.752;4.268;2023-07-22T06:15:52;18.42;;;8.00;;
25481;SDS011;13395;50.752;4.268;2023-07-22T06:18:18;13.43;;;8.05;;
25481;SDS011;13395;50.752;4.268;2023-07-22T06:20:44;15.82;;;8.23;;
25481;SDS011;13395;50.752;4.268;2023-07-22T06:23:10;19.77;;;8.05;;
25481;SDS011;13395;50.752;4.268;2023-07-22T06:25:35;16.33;;;8.10;;
25481;SDS011;13395;50.752;4.268;2023-07-22T06:28:01;12.95;;;7.75;;
25481;SDS011;13395;50.752;4.268;2023-07-22T06:30:26;16.58;;;8.20;;
25481;SDS011;13395;50.752;4.268;2023-07-22T06:32:52;14.88;;;7.28;;
25481;SDS011;13395;50.752;4.268;2023-07-22T06:35:18;14.60;;;7.38;;
25481;SDS011;13395;50.752;4.268;2023-07-22T06:37:43;16.20;;;8.13;;
25481;SDS011;13395;50.752;4.268;2023-07-22T06:40:09;18.05;;;7.68;;
25481;SDS011;13395;50.752;4.268;2023-07-22T06:42:35;17.05;;;7.53;;
25481;SDS011;13395;50.752;4.268;2023-07-22T06:45:01;17.00;;;7.97;;
25481;SDS011;13395;50.752;4.268;2023-07-22T06:47:26;16.48;;;7.20;;
25481;SDS011;13395;50.752;4.268;2023-07-22T06:49:52;14.82;;;6.90;;
25481;SDS011;13395;50.752;4.268;2023-07-22T06:52:18;14.55;;;7.00;;
25481;SDS011;13395;50.752;4.268;2023-07-22T06:54:43;11.27;;;7.25;;
25481;SDS011;13395;50.752;4.268;2023-07-22T06:57:09;16.58;;;8.10;;
25481;SDS011;13395;50.752;4.268;2023-07-22T06:59:34;13.88;;;7.13;;
25481;SDS011;13395;50.752;4.268;2023-07-22T07:02:01;12.55;;;6.22;;
25481;SDS011;13395;50.752;4.268;2023-07-22T07:04:27;16.67;;;7.50;;
25481;SDS011;13395;50.752;4.268;2023-07-22T07:06:53;13.18;;;7.03;;
25481;SDS011;13395;50.752;4.268;2023-07-22T07:09:19;12.95;;;6.95;;
25481;SDS011;13395;50.752;4.268;2023-07-22T07:11:45;13.27;;;6.20;;
25481;SDS011;13395;50.752;4.268;2023-07-22T07:14:11;15.25;;;6.63;;
25481;SDS011;13395;50.752;4.268;2023-07-22T07:16:37;13.32;;;7.05;;
25481;SDS011;13395;50.752;4.268;2023-07-22T07:19:03;15.27;;;6.40;;
25481;SDS011;13395;50.752;4.268;2023-07-22T07:21:28;9.70;;;6.00;;
25481;SDS011;13395;50.752;4.268;2023-07-22T07:23:54;12.32;;;5.75;;
25481;SDS011;13395;50.752;4.268;2023-07-22T07:26:20;12.40;;;5.82;;
25481;SDS011;13395;50.752;4.268;2023-07-22T07:28:47;14.60;;;5.95;;
25481;SDS011;13395;50.752;4.268;2023-07-22T07:31:14;19.95;;;6.55;;
25481;SDS011;13395;50.752;4.268;2023-07-22T07:33:39;14.63;;;5.93;;
25481;SDS011;13395;50.752;4.268;2023-07-22T07:36:05;10.65;;;5.82;;
25481;SDS011;13395;50.752;4.268;2023-07-22T07:38:31;10.45;;;6.30;;
25481;SDS011;13395;50.752;4.268;2023-07-22T07:40:59;11.77;;;5.43;;
25481;SDS011;13395;50.752;4.268;2023-07-22T07:43:26;15.07;;;6.70;;
25481;SDS011;13395;50.752;4.268;2023-07-22T07:48:37;15.38;;;6.65;;
25481;SDS011;13395;50.752;4.268;2023-07-22T07:51:02;15.38;;;5.53;;
25481;SDS011;13395;50.752;4.268;2023-07-22T07:53:28;10.88;;;5.32;;
25481;SDS011;13395;50.752;4.268;2023-07-22T07:55:53;10.30;;;4.97;;
25481;SDS011;13395;50.752;4.268;2023-07-22T07:58:19;9.20;;;5.25;;
25481;SDS011;13395;50.752;4.268;2023-07-22T08:00:44;9.60;;;5.07;;
25481;SDS011;13395;50.752;4.268;2023-07-22T08:03:10;11.15;;;5.47;;
25481;SDS011;13395;50.752;4.268;2023-07-22T08:05:35;17.63;;;5.18;;
25481;SDS011;13395;50.752;4.268;2023-07-22T08:08:01;14.07;;;5.22;;
25481;SDS011;13395;50.752;4.268;2023-07-22T08:10:27;10.63;;;4.70;;
25481;SDS011;13395;50.752;4.268;2023-07-22T08:12:52;13.65;;;5.03;;
25481;SDS011;13395;50.752;4.268;2023-07-22T08:15:18;10.88;;;3.97;;
25481;SDS011;13395;50.752;4.268;2023-07-22T08:17:44;6.95;;;3.58;;
25481;SDS011;13395;50.752;4.268;2023-07-22T08:20:16;10.38;;;3.92;;
25481;SDS011;13395;50.752;4.268;2023-07-22T08:22:42;10.90;;;4.38;;
25481;SDS011;13395;50.752;4.268;2023-07-22T08:25:07;7.07;;;3.65;;
25481;SDS011;13395;50.752;4.268;2023-07-22T08:27:33;7.90;;;3.90;;
25481;SDS011;13395;50.752;4.268;2023-07-22T08:29:59;6.13;;;4.05;;
25481;SDS011;13395;50.752;4.268;2023-07-22T08:32:24;9.73;;;4.00;;
25481;SDS011;13395;50.752;4.268;2023-07-22T08:34:50;10.65;;;4.07;;
25481;SDS011;13395;50.752;4.268;2023-07-22T08:37:17;9.90;;;3.13;;
25481;SDS011;13395;50.752;4.268;2023-07-22T08:39:43;7.38;;;3.13;;
25481;SDS011;13395;50.752;4.268;2023-07-22T08:42:08;5.13;;;2.58;;
25481;SDS011;13395;50.752;4.268;2023-07-22T08:44:34;7.15;;;3.00;;
25481;SDS011;13395;50.752;4.268;2023-07-22T08:47:03;10.32;;;2.35;;
25481;SDS011;13395;50.752;4.268;2023-07-22T08:49:34;5.30;;;2.00;;
25481;SDS011;13395;50.752;4.268;2023-07-22T08:51:59;5.38;;;2.40;;
25481;SDS011;13395;50.752;4.268;2023-07-22T08:54:26;6.35;;;2.28;;
25481;SDS011;13395;50.752;4.268;2023-07-22T08:56:53;4.38;;;2.05;;
25481;SDS011;13395;50.752;4.268;2023-07-22T08:59:19;4.57;;;1.85;;
25481;SDS011;13395;50.752;4.268;2023-07-22T09:01:46;2.85;;;1.92;;
25481;SDS011;13395;50.752;4.268;2023-07-22T09:04:13;5.18;;;2.28;;
25481;SDS011;13395;50.752;4.268;2023-07-22T09:06:39;3.38;;;1.83;;
25481;SDS011;13395;50.752;4.268;2023-07-22T09:09:07;3.22;;;1.70;;
25481;SDS011;13395;50.752;4.268;2023-07-22T09:11:35;4.68;;;2.05;;
25481;SDS011;13395;50.752;4.268;2023-07-22T09:14:01;4.72;;;2.05;;
25481;SDS011;13395;50.752;4.268;2023-07-22T09:16:29;4.32;;;1.90;;
25481;SDS011;13395;50.752;4.268;2023-07-22T09:18:56;3.70;;;1.42;;
25481;SDS011;13395;50.752;4.268;2023-07-22T09:21:22;4.90;;;2.13;;
25481;SDS011;13395;50.752;4.268;2023-07-22T09:23:48;6.82;;;1.67;;
25481;SDS011;13395;50.752;4.268;2023-07-22T09:26:15;2.20;;;1.38;;
25481;SDS011;13395;50.752;4.268;2023-07-22T09:28:55;3.47;;;1.33;;
25481;SDS011;13395;50.752;4.268;2023-07-22T09:31:22;2.85;;;1.48;;
25481;SDS011;13395;50.752;4.268;2023-07-22T09:33:50;7.50;;;1.90;;
25481;SDS011;13395;50.752;4.268;2023-07-22T09:36:16;2.45;;;1.33;;
25481;SDS011;13395;50.752;4.268;2023-07-22T09:38:41;6.15;;;1.70;;
25481;SDS011;13395;50.752;4.268;2023-07-22T09:41:07;2.53;;;1.20;;
25481;SDS011;13395;50.752;4.268;2023-07-22T09:43:40;1.92;;;1.20;;
25481;SDS011;13395;50.752;4.268;2023-07-22T09:46:06;3.15;;;1.30;;
25481;SDS011;13395;50.752;4.268;2023-07-22T09:48:43;2.35;;;1.30;;
25481;SDS011;13395;50.752;4.268;2023-07-22T09:53:44;3.92;;;1.50;;
25481;SDS011;13395;50.752;4.268;2023-07-22T09:56:12;1.85;;;1.10;;
25481;SDS011;13395;50.752;4.268;2023-07-22T09:58:38;2.75;;;1.30;;
25481;SDS011;13395;50.752;4.268;2023-07-22T10:01:05;4.15;;;1.23;;
25481;SDS011;13395;50.752;4.268;2023-07-22T10:03:32;1.48;;;0.95;;
25481;SDS011;13395;50.752;4.268;2023-07-22T10:06:02;2.40;;;1.00;;
25481;SDS011;13395;50.752;4.268;2023-07-22T10:08:30;2.83;;;0.90;;
25481;SDS011;13395;50.752;4.268;2023-07-22T10:11:00;2.88;;;1.00;;
25481;SDS011;13395;50.752;4.268;2023-07-22T10:13:28;4.63;;;1.00;;
25481;SDS011;13395;50.752;4.268;2023-07-22T10:15:53;3.95;;;1.08;;
25481;SDS011;13395;50.752;4.268;2023-07-22T10:18:19;1.48;;;0.90;;
25481;SDS011;13395;50.752;4.268;2023-07-22T10:20:49;1.50;;;0.98;;
25481;SDS011;13395;50.752;4.268;2023-07-22T10:23:15;1.48;;;1.00;;
25481;SDS011;13395;50.752;4.268;2023-07-22T10:25:41;2.05;;;1.00;;
25481;SDS011;13395;50.752;4.268;2023-07-22T10:28:08;3.22;;;1.30;;
25481;SDS011;13395;50.752;4.268;2023-07-22T10:30:34;1.70;;;0.80;;
25481;SDS011;13395;50.752;4.268;2023-07-22T10:33:00;1.65;;;1.00;;
25481;SDS011;13395;50.752;4.268;2023-07-22T10:37:55;2.75;;;1.10;;
25481;SDS011;13395;50.752;4.268;2023-07-22T10:40:44;3.70;;;1.08;;
25481;SDS011;13395;50.752;4.268;2023-07-22T10:43:18;4.40;;;1.75;;
25481;SDS011;13395;50.752;4.268;2023-07-22T10:45:50;4.63;;;1.05;;
25481;SDS011;13395;50.752;4.268;2023-07-22T10:48:17;2.28;;;1.50;;
25481;SDS011;13395;50.752;4.268;2023-07-22T10:50:43;2.70;;;1.40;;
25481;SDS011;13395;50.752;4.268;2023-07-22T10:53:19;5.50;;;1.38;;
25481;SDS011;13395;50.752;4.268;2023-07-22T10:56:33;2.85;;;1.42;;
25481;SDS011;13395;50.752;4.268;2023-07-22T11:04:14;4.75;;;1.77;;
25481;SDS011;13395;50.752;4.268;2023-07-22T11:12:03;4.70;;;1.60;;
25481;SDS011;13395;50.752;4.268;2023-07-22T11:17:16;3.25;;;2.00;;
25481;SDS011;13395;50.752;4.268;2023-07-22T11:19:43;3.75;;;2.10;;
25481;SDS011;13395;50.752;4.268;2023-07-22T11:22:08;2.17;;;1.48;;
25481;SDS011;13395;50.752;4.268;2023-07-22T11:24:35;2.92;;;1.73;;
25481;SDS011;13395;50.752;4.268;2023-07-22T11:27:05;1.92;;;1.60;;
25481;SDS011;13395;50.752;4.268;2023-07-22T11:29:32;2.97;;;1.50;;
25481;SDS011;13395;50.752;4.268;2023-07-22T11:31:57;5.15;;;2.53;;
25481;SDS011;13395;50.752;4.268;2023-07-22T11:34:23;3.30;;;1.73;;
25481;SDS011;13395;50.752;4.268;2023-07-22T11:36:50;3.42;;;1.58;;
25481;SDS011;13395;50.752;4.268;2023-07-22T11:39:20;2.30;;;1.45;;
25481;SDS011;13395;50.752;4.268;2023-07-22T11:41:47;2.58;;;1.55;;
25481;SDS011;13395;50.752;4.268;2023-07-22T11:44:16;6.65;;;1.65;;
25481;SDS011;13395;50.752;4.268;2023-07-22T11:46:59;2.72;;;1.50;;
25481;SDS011;13395;50.752;4.268;2023-07-22T11:49:32;3.58;;;1.33;;
25481;SDS011;13395;50.752;4.268;2023-07-22T11:54:31;3.40;;;1.58;;
25481;SDS011;13395;50.752;4.268;2023-07-22T11:57:08;2.28;;;1.55;;
25481;SDS011;13395;50.752;4.268;2023-07-22T11:59:48;4.60;;;1.48;;
25481;SDS011;13395;50.752;4.268;2023-07-22T12:02:16;3.58;;;1.40;;
25481;SDS011;13395;50.752;4.268;2023-07-22T12:07:21;5.60;;;1.65;;
25481;SDS011;13395;50.752;4.268;2023-07-22T12:09:48;7.30;;;1.98;;
25481;SDS011;13395;50.752;4.268;2023-07-22T12:12:14;5.22;;;1.30;;
25481;SDS011;13395;50.752;4.268;2023-07-22T12:14:40;1.60;;;1.17;;
25481;SDS011;13395;50.752;4.268;2023-07-22T12:17:07;2.03;;;1.30;;
25481;SDS011;13395;50.752;4.268;2023-07-22T12:19:34;6.03;;;1.55;;
25481;SDS011;13395;50.752;4.268;2023-07-22T12:22:00;4.70;;;1.40;;
25481;SDS011;13395;50.752;4.268;2023-07-22T12:24:26;2.95;;;1.35;;
25481;SDS011;13395;50.752;4.268;2023-07-22T12:26:52;4.10;;;1.45;;
25481;SDS011;13395;50.752;4.268;2023-07-22T12:29:18;1.85;;;1.20;;
25481;SDS011;13395;50.752;4.268;2023-07-22T12:31:44;2.65;;;1.45;;
25481;SDS011;13395;50.752;4.268;2023-07-22T12:34:09;2.25;;;1.10;;
25481;SDS011;13395;50.752;4.268;2023-07-22T12:36:35;1.50;;;1.08;;
25481;SDS011;13395;50.752;4.268;2023-07-22T12:39:01;2.33;;;1.27;;
25481;SDS011;13395;50.752;4.268;2023-07-22T12:41:26;2.63;;;1.00;;
25481;SDS011;13395;50.752;4.268;2023-07-22T12:43:52;1.42;;;1.00;;
25481;SDS011;13395;50.752;4.268;2023-07-22T12:46:18;1.55;;;1.10;;
25481;SDS011;13395;50.752;4.268;2023-07-22T12:48:43;4.18;;;1.60;;
25481;SDS011;13395;50.752;4.268;2023-07-22T12:51:09;2.60;;;1.40;;
25481;SDS011;13395;50.752;4.268;2023-07-22T12:53:35;2.75;;;1.02;;
25481;SDS011;13395;50.752;4.268;2023-07-22T12:56:00;3.88;;;1.20;;
25481;SDS011;13395;50.752;4.268;2023-07-22T12:58:28;1.60;;;1.15;;
25481;SDS011;13395;50.752;4.268;2023-07-22T13:00:54;2.95;;;1.00;;
25481;SDS011;13395;50.752;4.268;2023-07-22T13:03:20;3.17;;;1.20;;
25481;SDS011;13395;50.752;4.268;2023-07-22T13:05:45;4.05;;;1.40;;
25481;SDS011;13395;50.752;4.268;2023-07-22T13:08:11;5.63;;;1.50;;
25481;SDS011;13395;50.752;4.268;2023-07-22T13:10:37;2.97;;;1.10;;
25481;SDS011;13395;50.752;4.268;2023-07-22T13:13:04;2.28;;;1.38;;
25481;SDS011;13395;50.752;4.268;2023-07-22T13:15:30;2.75;;;1.13;;
25481;SDS011;13395;50.752;4.268;2023-07-22T13:17:56;3.92;;;1.30;;
25481;SDS011;13395;50.752;4.268;2023-07-22T13:20:22;5.75;;;1.45;;
25481;SDS011;13395;50.752;4.268;2023-07-22T13:22:47;2.78;;;1.30;;
25481;SDS011;13395;50.752;4.268;2023-07-22T13:25:13;3.28;;;1.38;;
25481;SDS011;13395;50.752;4.268;2023-07-22T13:27:38;5.00;;;1.25;;
25481;SDS011;13395;50.752;4.268;2023-07-22T13:30:08;5.88;;;1.65;;
25481;SDS011;13395;50.752;4.268;2023-07-22T13:32:34;3.92;;;1.70;;
25481;SDS011;13395;50.752;4.268;2023-07-22T13:35:00;2.97;;;1.52;;
25481;SDS011;13395;50.752;4.268;2023-07-22T13:37:25;4.13;;;1.52;;
25481;SDS011;13395;50.752;4.268;2023-07-22T13:39:51;7.13;;;1.70;;
25481;SDS011;13395;50.752;4.268;2023-07-22T13:42:18;4.63;;;1.52;;
25481;SDS011;13395;50.752;4.268;2023-07-22T13:44:43;4.47;;;1.60;;
25481;SDS011;13395;50.752;4.268;2023-07-22T13:47:09;6.07;;;1.80;;
25481;SDS011;13395;50.752;4.268;2023-07-22T13:49:34;1.77;;;1.30;;
25481;SDS011;13395;50.752;4.268;2023-07-22T13:52:00;5.70;;;1.60;;
25481;SDS011;13395;50.752;4.268;2023-07-22T13:54:25;3.35;;;1.20;;
25481;SDS011;13395;50.752;4.268;2023-07-22T13:56:51;5.68;;;1.50;;
25481;SDS011;13395;50.752;4.268;2023-07-22T13:59:17;2.28;;;1.48;;
25481;SDS011;13395;50.752;4.268;2023-07-22T14:01:42;2.50;;;1.23;;
25481;SDS011;13395;50.752;4.268;2023-07-22T14:04:08;5.68;;;1.90;;
25481;SDS011;13395;50.752;4.268;2023-07-22T14:06:33;6.32;;;1.33;;
25481;SDS011;13395;50.752;4.268;2023-07-22T14:08:59;3.28;;;1.50;;
25481;SDS011;13395;50.752;4.268;2023-07-22T14:11:26;2.88;;;1.58;;
25481;SDS011;13395;50.752;4.268;2023-07-22T14:13:52;6.05;;;1.60;;
25481;SDS011;13395;50.752;4.268;2023-07-22T14:16:17;4.05;;;1.73;;
25481;SDS011;13395;50.752;4.268;2023-07-22T14:18:44;9.25;;;2.25;;
25481;SDS011;13395;50.752;4.268;2023-07-22T14:21:10;6.72;;;1.83;;
25481;SDS011;13395;50.752;4.268;2023-07-22T14:23:36;6.43;;;1.60;;
25481;SDS011;13395;50.752;4.268;2023-07-22T14:26:02;4.68;;;2.03;;
25481;SDS011;13395;50.752;4.268;2023-07-22T14:28:27;8.98;;;1.92;;
25481;SDS011;13395;50.752;4.268;2023-07-22T14:30:53;3.10;;;1.50;;
25481;SDS011;13395;50.752;4.268;2023-07-22T14:33:19;7.63;;;1.30;;
25481;SDS011;13395;50.752;4.268;2023-07-22T14:35:44;2.88;;;1.25;;
25481;SDS011;13395;50.752;4.268;2023-07-22T14:38:10;2.50;;;1.20;;
25481;SDS011;13395;50.752;4.268;2023-07-22T14:40:36;6.60;;;1.90;;
25481;SDS011;13395;50.752;4.268;2023-07-22T14:43:02;1.65;;;1.10;;
25481;SDS011;13395;50.752;4.268;2023-07-22T14:45:27;5.18;;;1.50;;
25481;SDS011;13395;50.752;4.268;2023-07-22T14:47:53;4.45;;;1.20;;
25481;SDS011;13395;50.752;4.268;2023-07-22T14:50:18;2.40;;;1.02;;
25481;SDS011;13395;50.752;4.268;2023-07-22T14:52:44;2.53;;;1.10;;
25481;SDS011;13395;50.752;4.268;2023-07-22T14:55:10;2.70;;;1.10;;
25481;SDS011;13395;50.752;4.268;2023-07-22T14:57:35;7.82;;;1.30;;